createdAt,value
2018-05-10T01:11:32.964Z,18.80
2018-05-10T01:14:00.523Z,16.90
2018-05-10T01:16:28.063Z,17.00
2018-05-10T01:18:55.646Z,17.20
2018-05-10T01:21:23.210Z,17.30
2018-05-10T01:23:50.748Z,17.50
2018-05-10T01:26:18.333Z,17.50
2018-05-10T01:28:45.905Z,17.50
2018-05-10T01:31:13.481Z,17.60
2018-05-10T01:33:41.049Z,17.60
2018-05-10T01:36:14.536Z,17.60
2018-05-10T01:38:42.100Z,17.50
2018-05-10T01:41:09.669Z,17.50
2018-05-10T06:00:20.712Z,19.30
2018-05-10T06:02:48.266Z,19.40
2018-05-10T06:05:15.828Z,19.40
2018-05-10T06:07:43.383Z,19.60
2018-05-10T06:10:10.963Z,19.50
2018-05-10T06:12:39.265Z,19.60
2018-05-10T06:15:06.861Z,19.60
2018-05-10T06:17:34.406Z,19.40
2018-05-10T06:20:01.988Z,19.50
2018-05-10T06:22:29.550Z,19.50
2018-05-10T06:24:57.194Z,19.50
2018-05-10T06:27:24.688Z,19.50
2018-05-10T06:29:52.251Z,19.70
2018-05-10T06:32:19.793Z,19.90
2018-05-10T06:34:47.969Z,19.90
2018-05-10T06:37:15.525Z,19.90
2018-05-10T06:39:43.106Z,19.90
2018-05-10T06:42:11.428Z,19.80
2018-05-10T06:44:38.981Z,19.70
2018-05-10T06:47:06.537Z,19.50
2018-05-10T06:49:34.094Z,19.20
2018-05-10T06:52:01.636Z,19.20
2018-05-10T06:54:29.982Z,19.20
2018-05-10T06:56:57.516Z,19.10
2018-05-10T06:59:25.071Z,19.30
2018-05-10T07:01:53.367Z,19.70
2018-05-10T07:04:20.935Z,19.70
2018-05-10T07:06:48.464Z,19.80
2018-05-10T07:09:16.798Z,19.70
2018-05-10T07:11:44.346Z,19.70
2018-05-10T07:14:12.007Z,19.80
2018-05-10T07:16:39.541Z,19.80
2018-05-10T07:19:07.090Z,19.70
2018-05-10T07:21:35.403Z,19.90
2018-05-10T07:24:02.938Z,19.90
2018-05-10T07:26:30.483Z,19.90
2018-05-10T07:28:58.911Z,20.50
2018-05-10T07:31:26.463Z,20.40
2018-05-10T07:33:54.015Z,20.70
2018-05-10T07:36:21.594Z,20.70
2018-05-10T07:38:49.132Z,20.80
2018-05-10T07:41:16.757Z,20.90
2018-05-10T07:43:45.070Z,20.90
2018-05-10T07:46:12.650Z,20.90
2018-05-10T07:48:40.946Z,21.40
2018-05-10T07:51:08.510Z,21.30
2018-05-10T07:53:36.063Z,21.10
2018-05-10T07:56:03.623Z,21.30
2018-05-10T07:58:31.180Z,21.50
2018-05-10T08:00:58.914Z,21.60
2018-05-10T08:03:26.563Z,21.70
2018-05-10T08:05:54.114Z,21.60
2018-05-10T08:08:21.649Z,21.50
2018-05-10T08:10:50.148Z,21.10
2018-05-10T08:13:17.722Z,21.10
2018-05-10T08:15:45.296Z,20.80
2018-05-10T08:18:12.871Z,20.60
2018-05-10T08:20:40.440Z,20.60
2018-05-10T08:23:07.999Z,20.50
2018-05-10T08:25:35.569Z,20.20
2018-05-10T08:28:03.130Z,20.10
2018-05-10T08:30:31.476Z,20.20
2018-05-10T08:32:59.066Z,20.20
2018-05-10T08:35:26.640Z,20.10
2018-05-10T08:37:54.961Z,20.10
2018-05-10T08:40:22.571Z,20.10
2018-05-10T08:42:50.888Z,20.70
2018-05-10T08:45:18.462Z,20.60
2018-05-10T08:48:22.713Z,21.00
2018-05-10T08:50:53.975Z,21.00
2018-05-10T08:53:21.584Z,21.20
2018-05-10T08:55:49.163Z,21.10
2018-05-10T08:58:16.706Z,21.00
2018-05-10T09:00:44.273Z,21.00
2018-05-10T09:03:11.871Z,20.90
2018-05-10T09:05:39.435Z,20.90
2018-05-10T09:08:06.993Z,20.70
2018-05-10T09:10:35.421Z,20.40
2018-05-10T09:13:02.981Z,20.40
2018-05-10T09:15:30.550Z,20.40
2018-05-10T09:17:58.097Z,20.30
2018-05-10T09:20:25.665Z,20.10
2018-05-10T09:22:53.224Z,19.80
2018-05-10T09:25:20.768Z,19.60
2018-05-10T09:27:48.329Z,19.20
2018-05-10T09:30:15.858Z,18.80
2018-05-10T09:32:44.191Z,18.40
2018-05-10T09:35:12.892Z,18.30
2018-05-10T09:37:40.434Z,18.30
2018-05-10T09:40:07.976Z,18.30
2018-05-10T09:42:35.517Z,18.40
2018-05-10T09:45:03.060Z,18.40
2018-05-10T09:47:30.614Z,18.30
2018-05-10T09:49:58.917Z,17.50
2018-05-10T09:57:25.218Z,18.30
2018-05-10T09:59:52.770Z,18.30
2018-05-10T10:02:20.330Z,18.40
2018-05-10T10:04:47.863Z,18.60
2018-05-10T10:07:15.417Z,18.70
2018-05-10T10:09:42.951Z,18.40
2018-05-10T10:12:11.284Z,17.90
2018-05-10T10:14:39.970Z,17.90
2018-05-10T10:17:07.530Z,17.90
2018-05-10T10:19:36.229Z,18.30
2018-05-10T10:24:32.969Z,18.60
2018-05-10T10:44:24.961Z,19.20
2018-05-10T10:46:52.488Z,19.20
2018-05-10T10:56:47.634Z,19.60
2018-05-10T10:59:15.188Z,19.50
2018-05-10T11:01:42.837Z,19.60
2018-05-10T11:04:11.455Z,19.70
2018-05-10T11:06:39.014Z,19.70
2018-05-10T11:26:31.685Z,20.90
2018-05-10T11:28:59.240Z,20.90
2018-05-10T11:31:26.770Z,21.40
2018-05-10T11:33:55.101Z,21.30
2018-05-10T11:36:22.638Z,21.30
2018-05-10T11:38:50.209Z,21.50
2018-05-10T11:41:17.745Z,21.70
2018-05-10T11:43:46.063Z,21.80
2018-05-10T11:46:13.600Z,21.80
2018-05-10T11:48:41.949Z,21.50
2018-05-10T11:51:10.274Z,21.50
2018-05-10T11:53:37.838Z,21.50
2018-05-10T11:56:05.375Z,21.60
2018-05-10T11:58:32.933Z,21.50
2018-05-10T12:01:00.464Z,21.50
2018-05-10T12:03:28.786Z,21.20
2018-05-10T12:05:56.329Z,21.20
2018-05-10T12:08:23.914Z,20.90
2018-05-10T12:10:51.465Z,21.00
2018-05-10T12:13:19.020Z,21.20
2018-05-10T12:15:46.633Z,21.30
2018-05-10T12:18:14.962Z,21.20
2018-05-10T12:20:42.495Z,21.20
2018-05-10T12:23:10.040Z,21.30
2018-05-10T12:25:38.460Z,21.00
2018-05-10T12:28:06.004Z,20.90
2018-05-10T12:30:33.598Z,20.60
2018-05-10T12:33:01.134Z,20.60
2018-05-10T12:35:28.665Z,20.50
2018-05-10T12:37:56.236Z,20.50
2018-05-10T12:40:23.780Z,20.70
2018-05-10T12:42:51.356Z,20.90
2018-05-10T12:45:18.885Z,21.20
2018-05-10T12:47:47.191Z,21.40
2018-05-10T12:50:14.768Z,21.40
2018-05-10T12:52:42.322Z,21.40
2018-05-10T12:55:09.881Z,21.30
2018-05-10T12:57:37.406Z,21.30
2018-05-10T13:00:05.722Z,21.30
2018-05-10T13:02:33.280Z,21.30
2018-05-10T13:05:00.848Z,21.40
2018-05-10T13:07:28.380Z,21.40
2018-05-10T13:09:55.957Z,21.40
2018-05-10T13:12:24.249Z,21.10
2018-05-10T13:14:51.897Z,21.10
2018-05-10T13:17:19.434Z,21.10
2018-05-10T13:19:47.101Z,21.00
2018-05-10T13:22:14.579Z,20.80
2018-05-10T13:24:42.912Z,20.50
2018-05-10T13:27:10.504Z,20.50
2018-05-10T13:29:38.065Z,20.70
2018-05-10T13:32:06.368Z,20.30
2018-05-10T13:34:33.935Z,20.30
2018-05-10T13:37:01.459Z,20.30
2018-05-10T13:39:29.034Z,20.50
2018-05-10T13:41:57.349Z,20.20
2018-05-10T13:44:24.917Z,20.20
2018-05-10T13:46:52.454Z,20.20
2018-05-10T13:49:20.014Z,20.40
2018-05-10T13:51:47.552Z,20.30
2018-05-10T13:54:15.875Z,20.10
2018-05-10T13:56:43.420Z,20.10
2018-05-10T13:59:10.998Z,20.10
2018-05-10T14:01:38.539Z,20.10
2018-05-10T14:04:06.091Z,20.00
2018-05-10T14:06:33.636Z,19.90
2018-05-10T14:09:01.976Z,19.80
2018-05-10T14:11:30.649Z,19.60
2018-05-10T14:13:58.209Z,19.60
2018-05-10T14:16:25.749Z,19.40
2018-05-10T14:18:53.315Z,19.30
2018-05-10T14:21:20.865Z,19.20
2018-05-10T14:23:48.397Z,18.80
2018-05-10T14:26:16.730Z,18.30
